createdAt,value
2022-08-07T00:01:43.559Z,99195.91
2022-08-07T00:04:06.816Z,99198.13
2022-08-07T00:06:51.228Z,99183.69
2022-08-07T00:09:22.817Z,99193.88
2022-08-07T00:11:55.239Z,99202.38
2022-08-07T00:14:31.253Z,99196.31
2022-08-07T00:17:01.814Z,99188.09
2022-08-07T00:19:56.016Z,99192.56
2022-08-07T00:22:24.415Z,99190.06
2022-08-07T00:25:03.590Z,99182.50
2022-08-07T00:27:35.823Z,99182.72
2022-08-07T00:30:26.983Z,99191.78
2022-08-07T00:32:57.198Z,99180.88
2022-08-07T00:35:25.945Z,99182.81
2022-08-07T00:37:55.242Z,99179.72
2022-08-07T00:40:36.194Z,99173.25
2022-08-07T00:43:09.746Z,99175.81
2022-08-07T00:45:40.783Z,99176.66
2022-08-07T00:48:11.032Z,99173.88
2022-08-07T00:50:50.397Z,99166.22
2022-08-07T00:53:19.482Z,99159.31
2022-08-07T00:56:02.446Z,99158.19
2022-08-07T00:58:32.637Z,99153.78
2022-08-07T01:01:02.424Z,99151.53
2022-08-07T01:03:55.298Z,99158.06
2022-08-07T01:06:20.013Z,99146.41
2022-08-07T01:08:53.328Z,99151.47
2022-08-07T01:12:10.140Z,99145.38
2022-08-07T01:14:12.058Z,99147.31
2022-08-07T01:16:47.163Z,99150.00
2022-08-07T01:19:19.191Z,99152.56
2022-08-07T01:21:53.494Z,99146.03
2022-08-07T01:24:24.130Z,99161.69
2022-08-07T01:26:53.743Z,99157.13
2022-08-07T01:29:27.630Z,99136.09
2022-08-07T01:31:59.458Z,99154.28
2022-08-07T01:34:30.667Z,99156.97
2022-08-07T01:37:01.697Z,99154.88
2022-08-07T01:39:40.922Z,99154.16
2022-08-07T01:42:38.748Z,99150.06
2022-08-07T01:45:09.731Z,99155.53
2022-08-07T01:48:20.112Z,99146.97
2022-08-07T01:50:33.939Z,99142.03
2022-08-07T01:53:08.831Z,99136.13
2022-08-07T01:55:40.786Z,99148.94
2022-08-07T01:58:29.642Z,99144.88
2022-08-07T02:01:25.133Z,99148.22
2022-08-07T02:03:59.815Z,99145.06
2022-08-07T02:06:32.540Z,99148.63
2022-08-07T02:09:06.588Z,99145.97
2022-08-07T02:12:04.213Z,99137.59
2022-08-07T02:14:40.403Z,99137.50
2022-08-07T02:17:09.758Z,99137.59
2022-08-07T02:20:04.526Z,99138.22
2022-08-07T02:22:32.110Z,99147.94
2022-08-07T02:25:07.118Z,99147.56
2022-08-07T02:27:44.430Z,99140.34
2022-08-07T02:30:20.621Z,99143.31
2022-08-07T02:33:00.605Z,99148.78
2022-08-07T02:36:28.873Z,99153.31
2022-08-07T02:38:31.972Z,99152.09
2022-08-07T02:41:04.099Z,99146.78
2022-08-07T02:43:34.600Z,99151.13
2022-08-07T02:46:05.666Z,99143.13
2022-08-07T02:48:34.454Z,99148.03
2022-08-07T02:51:14.220Z,99151.41
2022-08-07T02:53:59.215Z,99130.66
2022-08-07T02:56:31.997Z,99152.97
2022-08-07T02:59:03.436Z,99139.75
2022-08-07T03:01:36.605Z,99150.13
2022-08-07T03:04:12.620Z,99142.44
2022-08-07T03:06:44.821Z,99134.91
2022-08-07T03:09:43.653Z,99145.13
2022-08-07T03:12:06.901Z,99139.00
2022-08-07T03:14:37.440Z,99134.25
2022-08-07T03:17:08.837Z,99126.66
2022-08-07T03:19:37.602Z,99133.84
2022-08-07T03:22:07.154Z,99134.13
2022-08-07T03:24:36.643Z,99141.97
2022-08-07T03:27:09.315Z,99141.06
2022-08-07T03:29:44.568Z,99124.72
2022-08-07T03:32:20.267Z,99135.59
2022-08-07T03:35:17.055Z,99137.25
2022-08-07T03:37:53.274Z,99132.19
2022-08-07T03:40:23.881Z,99137.69
2022-08-07T03:43:01.650Z,99130.91
2022-08-07T03:45:31.600Z,99137.81
2022-08-07T03:48:00.617Z,99138.28
2022-08-07T03:50:29.906Z,99131.31
2022-08-07T03:53:00.184Z,99116.03
2022-08-07T03:55:53.314Z,99125.88
2022-08-07T03:59:05.644Z,99118.81
2022-08-07T04:01:13.910Z,99122.09
2022-08-07T04:03:53.486Z,99126.78
2022-08-07T04:06:37.722Z,99124.22
2022-08-07T04:09:08.516Z,99124.31
2022-08-07T04:12:25.607Z,99130.13
2022-08-07T04:14:38.510Z,99117.56
2022-08-07T04:17:19.758Z,99117.66
2022-08-07T04:20:01.374Z,99122.09
2022-08-07T04:22:30.130Z,99131.19
2022-08-07T04:25:01.053Z,99136.66
2022-08-07T04:27:35.851Z,99145.00
2022-08-07T04:30:35.756Z,99134.03
2022-08-07T04:32:58.983Z,99148.50
2022-08-07T04:35:27.188Z,99147.88
2022-08-07T04:38:07.750Z,99152.72
2022-08-07T04:40:36.589Z,99150.38
2022-08-07T04:44:09.675Z,99160.06
2022-08-07T04:46:25.957Z,99160.19
2022-08-07T04:49:17.672Z,99162.53
2022-08-07T04:51:55.629Z,99164.81
2022-08-07T04:54:32.700Z,99158.16
2022-08-07T04:58:10.346Z,99164.13
2022-08-07T05:00:11.169Z,99167.28
2022-08-07T05:02:54.419Z,99173.59
2022-08-07T05:05:53.606Z,99167.53
2022-08-07T05:08:58.950Z,99169.19
2022-08-07T05:11:19.282Z,99175.41
2022-08-07T05:14:54.050Z,99180.84
2022-08-07T05:16:47.624Z,99181.25
2022-08-07T05:19:32.556Z,99183.22
2022-08-07T05:22:19.027Z,99181.47
2022-08-07T05:24:59.540Z,99199.09
2022-08-07T05:28:03.251Z,99197.38
2022-08-07T05:30:30.030Z,99184.97
2022-08-07T05:33:03.335Z,99195.56
2022-08-07T05:35:42.094Z,99194.50
2022-08-07T05:38:12.500Z,99196.47
2022-08-07T05:41:01.285Z,99208.53
2022-08-07T05:43:49.897Z,99196.88
2022-08-07T05:46:26.518Z,99200.97
2022-08-07T05:48:59.132Z,99203.22
2022-08-07T05:51:31.598Z,99195.63
2022-08-07T05:54:13.912Z,99203.38
2022-08-07T05:56:51.283Z,99195.16
2022-08-07T05:59:20.996Z,99192.75
2022-08-07T06:01:51.469Z,99197.41
2022-08-07T06:04:26.273Z,99195.06
2022-08-07T06:07:04.558Z,99201.84
2022-08-07T06:09:45.093Z,99199.78
2022-08-07T06:12:31.629Z,99200.47
2022-08-07T06:15:05.239Z,99204.63
2022-08-07T06:17:38.057Z,99210.91
2022-08-07T06:20:12.259Z,99200.81
2022-08-07T06:22:50.749Z,99196.88
2022-08-07T06:25:34.922Z,99198.41
2022-08-07T06:28:04.881Z,99195.25
2022-08-07T06:30:37.258Z,99196.44
2022-08-07T06:33:16.154Z,99203.94
2022-08-07T06:35:48.019Z,99196.97
2022-08-07T06:38:35.113Z,99196.75
2022-08-07T06:41:07.112Z,99209.78
2022-08-07T06:43:39.521Z,99203.16
2022-08-07T06:46:11.459Z,99201.53
2022-08-07T06:48:42.202Z,99187.66
2022-08-07T06:51:31.334Z,99176.97
2022-08-07T06:55:27.500Z,99192.47
2022-08-07T06:56:55.728Z,99188.66
2022-08-07T07:00:12.198Z,99187.72
2022-08-07T07:02:49.067Z,99191.63
2022-08-07T07:05:09.302Z,99194.22
2022-08-07T07:07:59.402Z,99190.28
2022-08-07T07:10:35.160Z,99190.34
2022-08-07T07:13:10.142Z,99175.81
2022-08-07T07:15:45.663Z,99192.66
2022-08-07T07:18:47.295Z,99195.34
2022-08-07T07:21:19.547Z,99190.47
2022-08-07T07:24:08.445Z,99174.81
2022-08-07T07:26:49.713Z,99176.75
2022-08-07T07:29:55.892Z,99183.53
2022-08-07T07:32:14.745Z,99185.00
2022-08-07T07:34:48.657Z,99184.44
2022-08-07T09:37:53.665Z,99104.63
2022-08-07T09:40:30.043Z,99104.69
2022-08-07T09:43:18.633Z,99101.47
2022-08-07T09:47:50.444Z,99106.75
2022-08-07T09:50:02.567Z,99101.94
2022-08-07T09:52:15.630Z,99090.28
2022-08-07T09:54:51.969Z,99087.75
2022-08-07T09:58:08.519Z,99092.78
2022-08-07T10:00:52.071Z,99086.44
2022-08-07T10:04:06.799Z,99081.59
2022-08-07T10:07:03.773Z,99084.25
2022-08-07T10:10:00.196Z,99083.34
2022-08-07T10:12:52.995Z,99085.75
2022-08-07T10:15:45.042Z,99077.03
2022-08-07T10:18:46.273Z,99069.97
2022-08-07T10:22:14.731Z,99067.16
2022-08-07T10:24:46.678Z,99070.50
2022-08-07T10:27:46.516Z,99062.41
2022-08-07T10:30:26.895Z,99049.50
2022-08-07T10:34:06.503Z,99035.47
2022-08-07T10:36:30.187Z,99027.38
2022-08-07T10:39:25.649Z,99048.19
2022-08-07T10:42:30.906Z,99029.19
2022-08-07T10:45:44.174Z,98984.78
2022-08-07T10:48:37.736Z,99039.94
2022-08-07T10:51:16.349Z,99017.66
2022-08-07T10:54:12.188Z,99001.94
2022-08-07T10:56:50.783Z,99034.06
2022-08-07T10:59:31.827Z,98975.91
2022-08-07T11:02:33.545Z,98983.19
2022-08-07T11:05:15.278Z,99014.63
2022-08-07T11:08:01.563Z,99007.94
2022-08-07T11:10:39.577Z,98988.44
2022-08-07T11:14:46.136Z,98995.28
2022-08-07T11:16:10.225Z,98991.63
2022-08-07T11:18:50.933Z,99004.25
2022-08-07T11:21:32.087Z,98966.13
2022-08-07T11:24:14.296Z,99004.31
2022-08-07T11:26:51.484Z,98970.25
2022-08-07T11:29:41.466Z,98955.66
2022-08-07T11:32:25.223Z,98962.72
2022-08-07T11:34:59.927Z,98979.06
2022-08-07T11:37:57.437Z,98955.72
2022-08-07T11:40:35.958Z,98944.03
2022-08-07T11:43:16.417Z,98960.59
2022-08-07T11:46:21.102Z,98974.56
2022-08-07T11:49:50.244Z,98982.28
2022-08-07T11:52:29.269Z,98980.06
2022-08-07T11:55:18.828Z,98981.16
2022-08-07T11:58:12.578Z,98971.94
2022-08-07T12:01:02.193Z,98960.94
2022-08-07T12:03:51.384Z,98971.25
2022-08-07T12:06:37.378Z,98963.16
2022-08-07T12:09:16.441Z,98966.84
2022-08-07T12:12:10.335Z,98960.03
2022-08-07T12:14:55.555Z,98960.66
2022-08-07T12:17:33.777Z,98954.31
2022-08-07T12:20:18.528Z,98949.00
2022-08-07T12:23:14.547Z,98953.34
2022-08-07T12:26:22.056Z,98956.13
2022-08-07T12:28:53.125Z,98955.66
2022-08-07T12:31:53.350Z,98943.44
2022-08-07T12:34:19.994Z,98941.25
2022-08-07T12:36:52.466Z,98943.25
2022-08-07T12:39:44.181Z,98940.75
2022-08-07T12:42:15.959Z,98938.31
2022-08-07T12:44:48.834Z,98928.38
2022-08-07T12:47:27.072Z,98923.72
2022-08-07T12:50:38.527Z,98940.41
2022-08-07T12:53:05.340Z,98941.66
2022-08-07T12:56:02.546Z,98929.19
2022-08-07T12:58:39.281Z,98927.78
2022-08-07T13:01:18.417Z,98928.19
2022-08-07T13:04:05.038Z,98926.28
2022-08-07T13:07:00.789Z,98919.75
2022-08-07T13:10:19.736Z,98918.72
2022-08-07T13:12:43.177Z,98911.44
2022-08-07T13:15:23.717Z,98910.69
2022-08-07T13:18:04.817Z,98912.34
2022-08-07T13:20:44.630Z,98910.91
2022-08-07T13:24:02.974Z,98908.94
2022-08-07T13:26:12.665Z,98896.97
2022-08-07T13:28:50.052Z,98902.72
2022-08-07T13:31:31.962Z,98893.88
2022-08-07T13:34:31.999Z,98895.63
2022-08-07T13:37:10.518Z,98896.22
2022-08-07T13:40:34.268Z,98890.22
2022-08-07T13:42:39.767Z,98894.84
2022-08-07T13:46:06.390Z,98885.53
2022-08-07T13:48:08.703Z,98883.66
2022-08-07T13:50:44.466Z,98884.94
2022-08-07T13:53:55.258Z,98873.88
2022-08-07T13:56:20.119Z,98874.25
2022-08-07T13:59:05.887Z,98868.91
2022-08-07T14:01:51.471Z,98861.91
2022-08-07T14:04:29.625Z,98857.84
2022-08-07T14:06:59.987Z,98871.16
2022-08-07T14:10:01.564Z,98866.50
2022-08-07T14:12:28.224Z,98844.16
2022-08-07T14:15:02.801Z,98853.06
2022-08-07T14:18:27.114Z,98845.72
2022-08-07T14:20:41.760Z,98853.00
2022-08-07T14:23:17.889Z,98848.47
2022-08-07T14:26:05.376Z,98849.56
2022-08-07T14:28:57.312Z,98844.19
2022-08-07T14:31:42.866Z,98849.88
2022-08-07T14:34:22.711Z,98843.53
2022-08-07T14:36:57.353Z,98849.13
2022-08-07T14:40:16.870Z,98840.84
2022-08-07T14:42:22.586Z,98834.72
2022-08-07T14:44:59.616Z,98829.03
2022-08-07T14:47:33.963Z,98828.31
2022-08-07T14:50:11.521Z,98835.75
2022-08-07T14:52:43.853Z,98825.22
2022-08-07T14:55:17.532Z,98831.34
2022-08-07T14:58:06.297Z,98827.47
2022-08-07T15:00:53.481Z,98837.22
2022-08-07T15:06:16.967Z,98828.28
2022-08-07T15:08:54.486Z,98822.28
2022-08-07T15:13:06.074Z,98834.41
2022-08-07T15:14:21.172Z,98815.03
2022-08-07T15:16:55.696Z,98819.66
2022-08-07T15:20:31.586Z,98828.03
2022-08-07T15:22:29.272Z,98820.53
2022-08-07T15:25:17.077Z,98834.53
2022-08-07T15:28:30.673Z,98823.84
2022-08-07T15:33:36.878Z,98829.84
2022-08-07T15:36:07.873Z,98818.16
2022-08-07T15:38:58.993Z,98825.28
2022-08-07T15:42:42.475Z,98822.84
2022-08-07T15:44:23.656Z,98813.72
2022-08-07T15:47:03.306Z,98808.28
2022-08-07T15:50:05.863Z,98807.13
2022-08-07T15:52:31.431Z,98816.00
2022-08-07T15:55:08.889Z,98823.25
2022-08-07T15:57:49.414Z,98812.97
2022-08-07T16:00:31.115Z,98807.78
2022-08-07T16:03:05.642Z,98816.78
2022-08-07T16:05:53.061Z,98802.78
2022-08-07T16:08:37.578Z,98800.34
2022-08-07T16:11:27.139Z,98803.59
2022-08-07T16:14:12.872Z,98803.03
2022-08-07T16:16:57.212Z,98802.44
2022-08-07T16:19:43.089Z,98800.34
2022-08-07T16:23:05.484Z,98813.44
2022-08-07T16:25:55.450Z,98810.06
2022-08-07T16:30:06.924Z,98812.28
2022-08-07T16:31:51.409Z,98798.81
2022-08-07T16:34:37.892Z,98812.97
2022-08-07T16:38:06.452Z,98816.41
2022-08-07T16:41:28.715Z,98821.38
2022-08-07T16:45:04.112Z,98822.56
2022-08-07T16:48:28.566Z,98822.88
2022-08-07T16:51:54.680Z,98817.53
2022-08-07T16:54:54.922Z,98831.94
2022-08-07T16:58:01.974Z,98825.38
2022-08-07T17:00:29.931Z,98821.09
2022-08-07T17:03:59.735Z,98835.63
2022-08-07T17:06:44.782Z,98826.34
2022-08-07T17:10:08.248Z,98824.69
2022-08-07T17:12:34.118Z,98821.59
2022-08-07T17:15:20.524Z,98819.44
2022-08-07T17:17:59.135Z,98819.09
2022-08-07T17:20:46.575Z,98828.22
2022-08-07T17:23:44.360Z,98824.91
2022-08-07T17:26:23.543Z,98823.66
2022-08-07T17:29:19.718Z,98822.47
2022-08-07T17:32:30.713Z,98806.25
2022-08-07T17:35:50.538Z,98834.16
2022-08-07T17:38:33.725Z,98825.22
2022-08-07T17:42:02.531Z,98831.84
2022-08-07T17:44:13.731Z,98829.53
2022-08-07T17:46:56.520Z,98834.41
2022-08-07T17:49:44.896Z,98833.78
2022-08-07T17:52:30.864Z,98839.72
2022-08-07T17:55:55.944Z,98829.84
2022-08-07T17:58:30.488Z,98849.56
2022-08-07T18:01:21.040Z,98849.09
2022-08-07T18:04:16.254Z,98860.91
2022-08-07T18:07:19.311Z,98858.75
2022-08-07T18:10:06.863Z,98871.34
2022-08-07T18:13:15.353Z,98861.38
2022-08-07T18:16:03.876Z,98857.84
2022-08-07T18:21:03.337Z,98857.22
2022-08-07T18:21:56.667Z,98861.09
2022-08-07T18:24:33.330Z,98872.75
2022-08-07T18:27:23.731Z,98871.16
2022-08-07T18:30:30.816Z,98871.78
2022-08-07T18:33:27.059Z,98877.31
2022-08-07T18:36:09.049Z,98886.53
2022-08-07T18:38:55.492Z,98890.56
2022-08-07T18:41:46.378Z,98900.31
2022-08-07T18:44:30.658Z,98905.97
2022-08-07T18:47:07.331Z,98909.78
2022-08-07T18:50:32.561Z,98906.41
2022-08-07T18:52:56.973Z,98915.19
2022-08-07T18:55:55.927Z,98919.41
2022-08-07T18:58:35.927Z,98926.94
2022-08-07T19:02:19.029Z,98933.66
2022-08-07T19:04:09.562Z,98939.31
2022-08-07T19:06:49.495Z,98944.53
2022-08-07T19:09:55.577Z,98943.28
2022-08-07T19:12:19.797Z,98944.50
2022-08-07T19:16:03.331Z,98942.66
2022-08-07T19:18:03.317Z,98950.53
2022-08-07T19:20:39.846Z,98953.88
2022-08-07T19:23:58.213Z,98957.63
2022-08-07T19:26:29.229Z,98963.47
2022-08-07T19:31:03.257Z,98965.59
2022-08-07T19:32:10.832Z,98968.66
2022-08-07T19:34:48.413Z,98973.41
2022-08-07T19:37:22.322Z,98965.25
2022-08-07T19:40:01.853Z,98969.63
2022-08-07T19:42:33.652Z,98969.41
2022-08-07T19:45:13.763Z,98971.44
2022-08-07T19:48:01.881Z,98971.25
2022-08-07T19:50:30.112Z,98975.63
2022-08-07T19:54:33.902Z,98975.13
2022-08-07T19:56:13.584Z,98970.47
2022-08-07T19:58:58.363Z,98963.66
2022-08-07T20:01:52.900Z,98969.72
2022-08-07T20:04:31.478Z,98978.63
2022-08-07T20:07:10.297Z,98978.81
2022-08-07T20:10:35.178Z,98983.16
2022-08-07T20:12:38.217Z,98977.84
2022-08-07T20:15:18.767Z,98980.31
2022-08-07T20:18:01.668Z,98975.03
2022-08-07T20:20:38.377Z,98975.53
2022-08-07T20:23:22.817Z,98972.06
2022-08-07T20:26:05.627Z,98974.66
2022-08-07T20:28:42.206Z,98971.94
2022-08-07T20:31:21.242Z,98979.03
2022-08-07T20:33:56.542Z,98966.44
2022-08-07T20:36:29.740Z,98973.03
2022-08-07T20:39:06.048Z,98978.78
2022-08-07T20:41:50.659Z,98983.97
2022-08-07T20:44:19.455Z,98989.75
2022-08-07T20:47:04.383Z,98988.56
2022-08-07T20:49:59.230Z,98999.66
2022-08-07T20:52:30.228Z,98992.66
2022-08-07T20:55:23.856Z,99009.47
2022-08-07T20:58:03.743Z,99006.19
2022-08-07T21:00:42.752Z,99006.28
2022-08-07T21:03:15.785Z,99010.94
2022-08-07T21:05:54.475Z,99009.31
2022-08-07T21:08:37.626Z,99012.09
2022-08-07T21:11:14.396Z,99008.66
2022-08-07T21:14:20.122Z,99008.16
2022-08-07T21:16:56.078Z,99013.19
2022-08-07T21:19:32.015Z,99010.25
2022-08-07T21:22:19.345Z,99011.44
2022-08-07T21:24:56.784Z,99010.00
2022-08-07T21:27:39.844Z,99022.06
2022-08-07T21:30:19.013Z,99005.19
2022-08-07T21:32:58.407Z,99016.75
2022-08-07T21:36:05.842Z,99004.56
2022-08-07T21:38:44.439Z,99010.63
2022-08-07T21:41:24.470Z,99005.50
2022-08-07T21:44:01.439Z,99008.41
2022-08-07T21:46:39.992Z,99004.78
2022-08-07T21:49:18.092Z,99015.75
2022-08-07T21:52:02.239Z,99010.09
2022-08-07T21:54:48.348Z,99008.31
2022-08-07T21:57:44.574Z,99016.88
2022-08-07T22:00:22.759Z,99009.72
2022-08-07T22:03:05.837Z,99002.28
2022-08-07T22:05:50.110Z,99009.91
2022-08-07T22:08:24.742Z,99006.91
2022-08-07T22:10:56.452Z,99008.28
2022-08-07T22:13:51.943Z,99011.31
2022-08-07T22:16:38.653Z,99004.75
2022-08-07T22:19:19.990Z,99009.47
2022-08-07T22:22:05.178Z,99008.97
2022-08-07T22:24:55.180Z,99015.88
2022-08-07T22:27:51.163Z,99018.41
2022-08-07T22:30:21.612Z,99016.56
2022-08-07T22:33:05.948Z,99020.78
2022-08-07T22:35:43.409Z,99019.78
2022-08-07T22:38:29.304Z,99017.72
2022-08-07T22:41:07.603Z,99017.69
2022-08-07T22:43:44.564Z,99023.94
2022-08-07T22:47:06.033Z,99021.03
2022-08-07T22:49:55.937Z,99023.06
2022-08-07T22:53:03.449Z,99017.53
2022-08-07T22:55:52.838Z,99027.13
2022-08-07T22:58:57.624Z,99026.28
2022-08-07T23:02:00.696Z,99026.63
2022-08-07T23:04:56.843Z,99017.88
2022-08-07T23:07:44.298Z,99026.28
2022-08-07T23:10:39.729Z,99027.16
2022-08-07T23:14:09.139Z,99031.56
2022-08-07T23:16:48.401Z,99021.53
2022-08-07T23:19:52.193Z,99027.06
2022-08-07T23:22:37.264Z,99021.66
2022-08-07T23:25:28.281Z,99020.81
2022-08-07T23:28:21.311Z,99021.09
2022-08-07T23:31:43.010Z,99021.47
2022-08-07T23:34:37.302Z,99027.19
2022-08-07T23:37:25.380Z,99022.66
2022-08-07T23:40:28.037Z,99022.44
2022-08-07T23:43:16.720Z,99029.88
2022-08-07T23:46:03.269Z,99029.66
2022-08-07T23:49:15.455Z,99037.25
2022-08-07T23:53:05.591Z,99036.63
2022-08-07T23:54:52.151Z,99041.94
2022-08-07T23:57:30.216Z,99040.09
